sensor_id;sensor_type;location;lat;lon;timestamp;temperature;humidity
65046;DHT22;54657;52.022;5.534;2022-09-27T00:02:02;12.40;82.80
65046;DHT22;54657;52.022;5.534;2022-09-27T00:04:28;12.40;82.60
65046;DHT22;54657;52.022;5.534;2022-09-27T00:06:53;12.40;82.60
65046;DHT22;54657;52.022;5.534;2022-09-27T00:09:19;12.40;82.50
65046;DHT22;54657;52.022;5.534;2022-09-27T00:11:45;12.30;82.40
65046;DHT22;54657;52.022;5.534;2022-09-27T00:14:13;12.30;82.40
65046;DHT22;54657;52.022;5.534;2022-09-27T00:16:40;12.30;82.50
65046;DHT22;54657;52.022;5.534;2022-09-27T00:19:15;12.30;82.30
65046;DHT22;54657;52.022;5.534;2022-09-27T00:21:41;12.30;82.30
65046;DHT22;54657;52.022;5.534;2022-09-27T00:24:11;12.30;82.20
65046;DHT22;54657;52.022;5.534;2022-09-27T00:26:37;12.30;82.10
65046;DHT22;54657;52.022;5.534;2022-09-27T00:29:03;12.30;82.30
65046;DHT22;54657;52.022;5.534;2022-09-27T00:31:30;12.20;82.30
65046;DHT22;54657;52.022;5.534;2022-09-27T00:33:57;12.20;82.40
65046;DHT22;54657;52.022;5.534;2022-09-27T00:36:23;12.10;82.50
65046;DHT22;54657;52.022;5.534;2022-09-27T00:38:50;12.10;82.60
65046;DHT22;54657;52.022;5.534;2022-09-27T00:41:22;12.10;83.40
65046;DHT22;54657;52.022;5.534;2022-09-27T00:43:51;12.10;83.50
65046;DHT22;54657;52.022;5.534;2022-09-27T00:46:25;12.00;83.00
65046;DHT22;54657;52.022;5.534;2022-09-27T00:51:40;12.00;83.00
65046;DHT22;54657;52.022;5.534;2022-09-27T00:54:11;12.00;83.00
65046;DHT22;54657;52.022;5.534;2022-09-27T00:56:38;12.10;82.90
65046;DHT22;54657;52.022;5.534;2022-09-27T00:59:12;12.00;82.80
65046;DHT22;54657;52.022;5.534;2022-09-27T01:01:39;12.00;82.80
65046;DHT22;54657;52.022;5.534;2022-09-27T01:04:08;12.00;82.80
65046;DHT22;54657;52.022;5.534;2022-09-27T01:06:34;12.00;82.80
65046;DHT22;54657;52.022;5.534;2022-09-27T01:09:01;12.00;82.80
65046;DHT22;54657;52.022;5.534;2022-09-27T01:23:44;12.00;82.60
65046;DHT22;54657;52.022;5.534;2022-09-27T01:34:08;11.90;82.60
65046;DHT22;54657;52.022;5.534;2022-09-27T01:42:35;11.90;82.60
65046;DHT22;54657;52.022;5.534;2022-09-27T01:44:46;11.90;82.50
65046;DHT22;54657;52.022;5.534;2022-09-27T01:47:17;11.90;82.40
65046;DHT22;54657;52.022;5.534;2022-09-27T01:50:01;11.90;82.20
65046;DHT22;54657;52.022;5.534;2022-09-27T01:52:34;11.90;82.20
65046;DHT22;54657;52.022;5.534;2022-09-27T01:55:03;11.90;82.30
65046;DHT22;54657;52.022;5.534;2022-09-27T01:57:34;11.90;82.20
65046;DHT22;54657;52.022;5.534;2022-09-27T02:00:05;11.90;82.10
65046;DHT22;54657;52.022;5.534;2022-09-27T02:02:36;11.90;82.10
65046;DHT22;54657;52.022;5.534;2022-09-27T02:05:06;12.00;82.00
65046;DHT22;54657;52.022;5.534;2022-09-27T02:07:57;12.00;82.00
65046;DHT22;54657;52.022;5.534;2022-09-27T02:10:28;12.00;82.00
65046;DHT22;54657;52.022;5.534;2022-09-27T02:13:01;11.90;82.10
65046;DHT22;54657;52.022;5.534;2022-09-27T02:15:38;11.90;82.30
65046;DHT22;54657;52.022;5.534;2022-09-27T02:18:14;11.90;82.10
65046;DHT22;54657;52.022;5.534;2022-09-27T02:20:49;11.90;82.10
65046;DHT22;54657;52.022;5.534;2022-09-27T02:23:31;12.00;82.00
65046;DHT22;54657;52.022;5.534;2022-09-27T02:26:02;12.00;81.90
65046;DHT22;54657;52.022;5.534;2022-09-27T02:28:39;12.00;81.70
65046;DHT22;54657;52.022;5.534;2022-09-27T02:31:07;12.00;81.70
65046;DHT22;54657;52.022;5.534;2022-09-27T02:33:46;12.00;81.60
65046;DHT22;54657;52.022;5.534;2022-09-27T02:36:13;12.00;81.60
65046;DHT22;54657;52.022;5.534;2022-09-27T02:38:40;12.00;81.60
65046;DHT22;54657;52.022;5.534;2022-09-27T02:41:17;12.00;81.50
65046;DHT22;54657;52.022;5.534;2022-09-27T02:43:46;12.00;81.60
65046;DHT22;54657;52.022;5.534;2022-09-27T02:54:29;12.00;81.50
65046;DHT22;54657;52.022;5.534;2022-09-27T03:02:34;12.00;81.10
65046;DHT22;54657;52.022;5.534;2022-09-27T03:05:12;12.00;81.00
65046;DHT22;54657;52.022;5.534;2022-09-27T03:07:39;12.00;81.10
65046;DHT22;54657;52.022;5.534;2022-09-27T03:10:06;11.90;81.10
65046;DHT22;54657;52.022;5.534;2022-09-27T03:12:32;11.90;81.20
65046;DHT22;54657;52.022;5.534;2022-09-27T03:14:59;11.90;81.90
65046;DHT22;54657;52.022;5.534;2022-09-27T03:17:25;11.80;81.30
65046;DHT22;54657;52.022;5.534;2022-09-27T03:19:51;11.90;81.30
65046;DHT22;54657;52.022;5.534;2022-09-27T03:22:17;11.80;81.30
65046;DHT22;54657;52.022;5.534;2022-09-27T03:24:43;11.70;81.60
65046;DHT22;54657;52.022;5.534;2022-09-27T03:27:08;11.70;81.60
65046;DHT22;54657;52.022;5.534;2022-09-27T03:29:34;11.70;81.70
65046;DHT22;54657;52.022;5.534;2022-09-27T03:32:01;11.60;81.70
65046;DHT22;54657;52.022;5.534;2022-09-27T03:34:26;11.60;81.70
65046;DHT22;54657;52.022;5.534;2022-09-27T03:36:52;11.60;81.80
65046;DHT22;54657;52.022;5.534;2022-09-27T03:39:17;11.60;81.90
65046;DHT22;54657;52.022;5.534;2022-09-27T03:41:43;11.60;81.70
65046;DHT22;54657;52.022;5.534;2022-09-27T03:44:08;11.60;81.80
65046;DHT22;54657;52.022;5.534;2022-09-27T03:46:34;11.50;81.80
65046;DHT22;54657;52.022;5.534;2022-09-27T03:49:00;11.60;81.80
65046;DHT22;54657;52.022;5.534;2022-09-27T03:51:25;11.60;81.70
65046;DHT22;54657;52.022;5.534;2022-09-27T03:53:51;11.60;81.60
65046;DHT22;54657;52.022;5.534;2022-09-27T03:56:17;11.60;81.70
65046;DHT22;54657;52.022;5.534;2022-09-27T03:58:43;11.50;81.90
65046;DHT22;54657;52.022;5.534;2022-09-27T04:01:09;11.50;82.00
65046;DHT22;54657;52.022;5.534;2022-09-27T04:03:35;11.50;82.10
65046;DHT22;54657;52.022;5.534;2022-09-27T04:06:01;11.50;82.00
65046;DHT22;54657;52.022;5.534;2022-09-27T04:08:27;11.50;81.90
65046;DHT22;54657;52.022;5.534;2022-09-27T04:10:54;11.50;81.70
65046;DHT22;54657;52.022;5.534;2022-09-27T04:13:20;11.50;81.70
65046;DHT22;54657;52.022;5.534;2022-09-27T04:15:45;11.50;81.80
65046;DHT22;54657;52.022;5.534;2022-09-27T04:18:11;11.50;81.70
65046;DHT22;54657;52.022;5.534;2022-09-27T04:20:37;11.50;81.70
65046;DHT22;54657;52.022;5.534;2022-09-27T04:23:03;11.50;81.70
65046;DHT22;54657;52.022;5.534;2022-09-27T04:25:28;11.40;81.60
65046;DHT22;54657;52.022;5.534;2022-09-27T04:27:54;11.40;81.60
65046;DHT22;54657;52.022;5.534;2022-09-27T04:30:20;11.40;81.50
65046;DHT22;54657;52.022;5.534;2022-09-27T04:32:47;11.40;81.50
65046;DHT22;54657;52.022;5.534;2022-09-27T04:35:13;11.30;81.60
65046;DHT22;54657;52.022;5.534;2022-09-27T04:37:58;11.30;81.70
65046;DHT22;54657;52.022;5.534;2022-09-27T04:40:24;11.30;81.90
65046;DHT22;54657;52.022;5.534;2022-09-27T04:42:50;11.30;81.80
65046;DHT22;54657;52.022;5.534;2022-09-27T04:45:17;11.30;81.90
65046;DHT22;54657;52.022;5.534;2022-09-27T04:47:44;11.30;81.90
65046;DHT22;54657;52.022;5.534;2022-09-27T04:50:11;11.20;81.90
65046;DHT22;54657;52.022;5.534;2022-09-27T04:52:37;11.20;81.90
65046;DHT22;54657;52.022;5.534;2022-09-27T04:55:03;11.20;81.90
65046;DHT22;54657;52.022;5.534;2022-09-27T04:57:29;11.20;81.90
65046;DHT22;54657;52.022;5.534;2022-09-27T04:59:55;11.20;81.90
65046;DHT22;54657;52.022;5.534;2022-09-27T05:02:20;11.10;82.00
65046;DHT22;54657;52.022;5.534;2022-09-27T05:04:46;11.10;82.10
65046;DHT22;54657;52.022;5.534;2022-09-27T05:07:11;11.10;82.20
65046;DHT22;54657;52.022;5.534;2022-09-27T05:09:37;11.10;82.00
65046;DHT22;54657;52.022;5.534;2022-09-27T05:12:03;11.10;82.00
65046;DHT22;54657;52.022;5.534;2022-09-27T05:14:31;11.10;82.10
65046;DHT22;54657;52.022;5.534;2022-09-27T05:16:57;11.00;82.10
65046;DHT22;54657;52.022;5.534;2022-09-27T05:19:22;11.00;82.00
65046;DHT22;54657;52.022;5.534;2022-09-27T05:21:48;11.00;82.00
65046;DHT22;54657;52.022;5.534;2022-09-27T05:24:15;11.00;82.00
65046;DHT22;54657;52.022;5.534;2022-09-27T05:26:40;11.00;81.90
65046;DHT22;54657;52.022;5.534;2022-09-27T05:29:06;11.00;82.00
65046;DHT22;54657;52.022;5.534;2022-09-27T05:31:31;11.00;82.10
65046;DHT22;54657;52.022;5.534;2022-09-27T05:33:57;11.10;82.10
65046;DHT22;54657;52.022;5.534;2022-09-27T05:36:23;11.10;82.00
65046;DHT22;54657;52.022;5.534;2022-09-27T05:38:48;11.00;82.10
65046;DHT22;54657;52.022;5.534;2022-09-27T05:41:14;11.00;82.10
65046;DHT22;54657;52.022;5.534;2022-09-27T05:43:40;11.10;82.40
65046;DHT22;54657;52.022;5.534;2022-09-27T05:46:06;11.00;82.40
65046;DHT22;54657;52.022;5.534;2022-09-27T05:48:31;11.10;82.30
65046;DHT22;54657;52.022;5.534;2022-09-27T05:50:57;11.10;82.40
65046;DHT22;54657;52.022;5.534;2022-09-27T05:53:23;11.10;82.50
65046;DHT22;54657;52.022;5.534;2022-09-27T05:55:49;11.10;82.50
65046;DHT22;54657;52.022;5.534;2022-09-27T05:58:15;11.00;82.60
65046;DHT22;54657;52.022;5.534;2022-09-27T06:00:41;11.00;82.60
65046;DHT22;54657;52.022;5.534;2022-09-27T06:03:10;11.00;82.70
65046;DHT22;54657;52.022;5.534;2022-09-27T06:05:38;11.10;82.70
65046;DHT22;54657;52.022;5.534;2022-09-27T06:08:09;11.00;82.80
65046;DHT22;54657;52.022;5.534;2022-09-27T06:10:36;11.10;82.80
65046;DHT22;54657;52.022;5.534;2022-09-27T06:13:04;11.10;82.70
65046;DHT22;54657;52.022;5.534;2022-09-27T06:15:31;11.10;82.80
65046;DHT22;54657;52.022;5.534;2022-09-27T06:18:06;11.10;82.80
65046;DHT22;54657;52.022;5.534;2022-09-27T06:20:32;11.10;82.80
65046;DHT22;54657;52.022;5.534;2022-09-27T06:23:08;11.10;82.60
65046;DHT22;54657;52.022;5.534;2022-09-27T06:25:34;11.10;82.60
65046;DHT22;54657;52.022;5.534;2022-09-27T06:28:01;11.10;82.60
65046;DHT22;54657;52.022;5.534;2022-09-27T06:30:26;11.20;82.60
65046;DHT22;54657;52.022;5.534;2022-09-27T06:33:00;11.20;82.50
65046;DHT22;54657;52.022;5.534;2022-09-27T06:35:27;11.30;82.80
65046;DHT22;54657;52.022;5.534;2022-09-27T06:37:54;11.30;82.50
65046;DHT22;54657;52.022;5.534;2022-09-27T06:40:20;11.30;82.70
65046;DHT22;54657;52.022;5.534;2022-09-27T06:42:47;11.40;82.60
65046;DHT22;54657;52.022;5.534;2022-09-27T06:45:15;11.40;82.60
65046;DHT22;54657;52.022;5.534;2022-09-27T06:47:40;11.40;82.50
65046;DHT22;54657;52.022;5.534;2022-09-27T06:50:06;11.40;82.80
65046;DHT22;54657;52.022;5.534;2022-09-27T06:52:33;11.40;82.70
65046;DHT22;54657;52.022;5.534;2022-09-27T06:54:59;11.40;82.70
65046;DHT22;54657;52.022;5.534;2022-09-27T06:57:25;11.40;82.80
65046;DHT22;54657;52.022;5.534;2022-09-27T07:00:10;11.40;82.80
65046;DHT22;54657;52.022;5.534;2022-09-27T07:02:49;11.40;83.00
65046;DHT22;54657;52.022;5.534;2022-09-27T07:05:18;11.50;82.90
65046;DHT22;54657;52.022;5.534;2022-09-27T07:07:44;11.50;82.90
65046;DHT22;54657;52.022;5.534;2022-09-27T07:10:10;11.60;82.80
65046;DHT22;54657;52.022;5.534;2022-09-27T07:12:36;11.70;82.70
65046;DHT22;54657;52.022;5.534;2022-09-27T07:15:02;11.70;82.90
65046;DHT22;54657;52.022;5.534;2022-09-27T07:17:28;11.70;82.60
65046;DHT22;54657;52.022;5.534;2022-09-27T07:19:54;11.80;82.70
65046;DHT22;54657;52.022;5.534;2022-09-27T07:22:20;11.80;82.70
65046;DHT22;54657;52.022;5.534;2022-09-27T07:24:45;11.80;82.60
65046;DHT22;54657;52.022;5.534;2022-09-27T07:27:11;11.80;82.80
65046;DHT22;54657;52.022;5.534;2022-09-27T07:29:36;11.70;83.00
65046;DHT22;54657;52.022;5.534;2022-09-27T07:32:03;11.70;83.10
65046;DHT22;54657;52.022;5.534;2022-09-27T07:34:28;11.80;83.10
65046;DHT22;54657;52.022;5.534;2022-09-27T07:37:00;11.90;83.00
65046;DHT22;54657;52.022;5.534;2022-09-27T07:39:28;11.90;83.00
65046;DHT22;54657;52.022;5.534;2022-09-27T07:41:53;11.90;82.90
65046;DHT22;54657;52.022;5.534;2022-09-27T07:44:19;12.00;82.70
65046;DHT22;54657;52.022;5.534;2022-09-27T07:46:45;12.00;82.80
65046;DHT22;54657;52.022;5.534;2022-09-27T07:49:11;12.00;82.80
65046;DHT22;54657;52.022;5.534;2022-09-27T07:51:36;12.10;82.80
65046;DHT22;54657;52.022;5.534;2022-09-27T07:54:02;12.10;82.70
65046;DHT22;54657;52.022;5.534;2022-09-27T07:56:27;12.10;82.60
65046;DHT22;54657;52.022;5.534;2022-09-27T07:58:53;12.10;82.80
65046;DHT22;54657;52.022;5.534;2022-09-27T08:01:19;12.10;82.70
65046;DHT22;54657;52.022;5.534;2022-09-27T08:03:45;12.10;82.60
65046;DHT22;54657;52.022;5.534;2022-09-27T08:06:10;12.10;82.80
65046;DHT22;54657;52.022;5.534;2022-09-27T08:08:36;12.10;82.80
65046;DHT22;54657;52.022;5.534;2022-09-27T08:11:13;12.10;82.90
65046;DHT22;54657;52.022;5.534;2022-09-27T08:13:41;12.20;83.00
65046;DHT22;54657;52.022;5.534;2022-09-27T08:16:06;12.20;82.90
65046;DHT22;54657;52.022;5.534;2022-09-27T08:18:32;12.20;82.90
65046;DHT22;54657;52.022;5.534;2022-09-27T08:20:58;12.20;82.90
65046;DHT22;54657;52.022;5.534;2022-09-27T08:23:24;12.20;82.90
65046;DHT22;54657;52.022;5.534;2022-09-27T08:25:51;12.30;82.70
65046;DHT22;54657;52.022;5.534;2022-09-27T08:28:17;12.30;82.70
65046;DHT22;54657;52.022;5.534;2022-09-27T08:30:43;12.40;82.70
65046;DHT22;54657;52.022;5.534;2022-09-27T08:33:09;12.40;82.50
65046;DHT22;54657;52.022;5.534;2022-09-27T08:35:35;12.50;82.40
65046;DHT22;54657;52.022;5.534;2022-09-27T08:38:02;12.50;82.20
65046;DHT22;54657;52.022;5.534;2022-09-27T08:40:43;12.60;82.40
65046;DHT22;54657;52.022;5.534;2022-09-27T08:48:39;12.70;82.80
65046;DHT22;54657;52.022;5.534;2022-09-27T08:51:06;12.70;82.70
65046;DHT22;54657;52.022;5.534;2022-09-27T08:53:40;12.70;82.60
65046;DHT22;54657;52.022;5.534;2022-09-27T08:56:08;12.60;82.60
65046;DHT22;54657;52.022;5.534;2022-09-27T08:58:46;12.60;82.80
65046;DHT22;54657;52.022;5.534;2022-09-27T09:01:15;12.60;82.60
65046;DHT22;54657;52.022;5.534;2022-09-27T09:03:52;12.60;82.60
65046;DHT22;54657;52.022;5.534;2022-09-27T09:06:39;12.50;82.20
65046;DHT22;54657;52.022;5.534;2022-09-27T09:26:10;12.30;83.00
65046;DHT22;54657;52.022;5.534;2022-09-27T09:31:33;12.30;82.90
65046;DHT22;54657;52.022;5.534;2022-09-27T09:34:14;12.50;82.70
65046;DHT22;54657;52.022;5.534;2022-09-27T09:36:53;12.50;82.50
65046;DHT22;54657;52.022;5.534;2022-09-27T09:39:52;12.50;82.30
65046;DHT22;54657;52.022;5.534;2022-09-27T09:42:31;12.40;81.80
65046;DHT22;54657;52.022;5.534;2022-09-27T09:45:05;12.40;82.60
65046;DHT22;54657;52.022;5.534;2022-09-27T09:50:25;12.40;82.50
65046;DHT22;54657;52.022;5.534;2022-09-27T09:53:19;12.40;82.30
65046;DHT22;54657;52.022;5.534;2022-09-27T09:56:01;12.30;82.60
65046;DHT22;54657;52.022;5.534;2022-09-27T10:01:00;12.20;82.60
65046;DHT22;54657;52.022;5.534;2022-09-27T10:03:33;12.20;82.80
65046;DHT22;54657;52.022;5.534;2022-09-27T10:05:58;12.20;82.80
65046;DHT22;54657;52.022;5.534;2022-09-27T10:08:24;12.30;82.90
65046;DHT22;54657;52.022;5.534;2022-09-27T10:10:50;12.30;82.70
65046;DHT22;54657;52.022;5.534;2022-09-27T10:13:19;12.40;82.60
65046;DHT22;54657;52.022;5.534;2022-09-27T10:15:53;12.40;82.70
65046;DHT22;54657;52.022;5.534;2022-09-27T10:18:20;12.40;82.40
65046;DHT22;54657;52.022;5.534;2022-09-27T10:20:56;12.40;82.40
65046;DHT22;54657;52.022;5.534;2022-09-27T10:23:23;12.50;82.20
65046;DHT22;54657;52.022;5.534;2022-09-27T10:25:56;12.50;82.30
65046;DHT22;54657;52.022;5.534;2022-09-27T10:28:42;12.40;82.20
65046;DHT22;54657;52.022;5.534;2022-09-27T10:31:13;12.50;82.30
65046;DHT22;54657;52.022;5.534;2022-09-27T10:34:00;12.40;82.50
65046;DHT22;54657;52.022;5.534;2022-09-27T10:36:29;12.40;82.30
65046;DHT22;54657;52.022;5.534;2022-09-27T10:38:59;12.50;82.60
65046;DHT22;54657;52.022;5.534;2022-09-27T10:41:34;12.40;82.60
65046;DHT22;54657;52.022;5.534;2022-09-27T10:46:45;12.40;82.70
65046;DHT22;54657;52.022;5.534;2022-09-27T10:49:27;12.50;82.70
65046;DHT22;54657;52.022;5.534;2022-09-27T10:51:58;12.60;82.20
65046;DHT22;54657;52.022;5.534;2022-09-27T10:54:29;12.50;82.30
65046;DHT22;54657;52.022;5.534;2022-09-27T10:59:28;12.60;82.20
65046;DHT22;54657;52.022;5.534;2022-09-27T11:01:55;12.60;82.20
65046;DHT22;54657;52.022;5.534;2022-09-27T11:04:28;12.70;82.30
65046;DHT22;54657;52.022;5.534;2022-09-27T11:07:17;12.80;82.30
65046;DHT22;54657;52.022;5.534;2022-09-27T11:09:53;12.80;82.30
65046;DHT22;54657;52.022;5.534;2022-09-27T11:12:19;12.80;82.10
65046;DHT22;54657;52.022;5.534;2022-09-27T11:14:56;12.90;82.00
65046;DHT22;54657;52.022;5.534;2022-09-27T11:20:30;12.90;82.10
65046;DHT22;54657;52.022;5.534;2022-09-27T11:23:34;13.00;81.80
65046;DHT22;54657;52.022;5.534;2022-09-27T11:31:26;13.00;81.60
65046;DHT22;54657;52.022;5.534;2022-09-27T11:37:14;13.00;81.70
65046;DHT22;54657;52.022;5.534;2022-09-27T11:45:45;13.00;81.30
65046;DHT22;54657;52.022;5.534;2022-09-27T11:51:41;13.00;80.90
65046;DHT22;54657;52.022;5.534;2022-09-27T11:57:01;12.90;81.70
65046;DHT22;54657;52.022;5.534;2022-09-27T12:10:53;12.90;81.60
65046;DHT22;54657;52.022;5.534;2022-09-27T12:13:36;12.90;81.60
65046;DHT22;54657;52.022;5.534;2022-09-27T12:16:04;12.90;81.40
65046;DHT22;54657;52.022;5.534;2022-09-27T12:18:38;12.90;81.70
65046;DHT22;54657;52.022;5.534;2022-09-27T12:21:06;12.80;81.30
65046;DHT22;54657;52.022;5.534;2022-09-27T12:23:42;12.70;81.80
65046;DHT22;54657;52.022;5.534;2022-09-27T12:26:16;12.70;81.70
65046;DHT22;54657;52.022;5.534;2022-09-27T12:29:24;12.70;82.00
65046;DHT22;54657;52.022;5.534;2022-09-27T12:34:53;12.60;81.20
65046;DHT22;54657;52.022;5.534;2022-09-27T12:39:54;12.60;81.70
65046;DHT22;54657;52.022;5.534;2022-09-27T12:42:30;12.60;81.70
65046;DHT22;54657;52.022;5.534;2022-09-27T12:44:56;12.60;81.50
65046;DHT22;54657;52.022;5.534;2022-09-27T12:50:36;12.60;81.50
65046;DHT22;54657;52.022;5.534;2022-09-27T12:53:44;12.60;81.00
65046;DHT22;54657;52.022;5.534;2022-09-27T13:01:55;12.50;81.50
65046;DHT22;54657;52.022;5.534;2022-09-27T13:12:39;12.50;81.50
65046;DHT22;54657;52.022;5.534;2022-09-27T13:20:36;12.60;81.20
65046;DHT22;54657;52.022;5.534;2022-09-27T13:23:48;12.60;81.10
65046;DHT22;54657;52.022;5.534;2022-09-27T13:25:52;12.60;81.00
65046;DHT22;54657;52.022;5.534;2022-09-27T13:28:31;12.70;81.00
65046;DHT22;54657;52.022;5.534;2022-09-27T13:30:59;12.70;80.70
65046;DHT22;54657;52.022;5.534;2022-09-27T13:36:17;12.80;80.90
65046;DHT22;54657;52.022;5.534;2022-09-27T13:47:19;13.10;79.90
65046;DHT22;54657;52.022;5.534;2022-09-27T13:49:49;13.10;80.00
65046;DHT22;54657;52.022;5.534;2022-09-27T13:52:21;13.10;80.00
65046;DHT22;54657;52.022;5.534;2022-09-27T13:54:56;13.00;79.90
65046;DHT22;54657;52.022;5.534;2022-09-27T14:00:19;13.00;79.80
65046;DHT22;54657;52.022;5.534;2022-09-27T14:02:54;13.00;80.10
65046;DHT22;54657;52.022;5.534;2022-09-27T14:05:27;13.10;79.60
65046;DHT22;54657;52.022;5.534;2022-09-27T14:07:56;13.30;79.80
65046;DHT22;54657;52.022;5.534;2022-09-27T14:10:24;13.40;79.50
65046;DHT22;54657;52.022;5.534;2022-09-27T14:12:52;13.50;79.00
65046;DHT22;54657;52.022;5.534;2022-09-27T14:15:36;13.50;78.80
65046;DHT22;54657;52.022;5.534;2022-09-27T14:18:02;13.60;78.50
65046;DHT22;54657;52.022;5.534;2022-09-27T14:20:42;13.60;78.40
65046;DHT22;54657;52.022;5.534;2022-09-27T14:23:19;13.70;78.60
65046;DHT22;54657;52.022;5.534;2022-09-27T14:25:46;13.70;78.40
65046;DHT22;54657;52.022;5.534;2022-09-27T14:28:20;13.80;78.60
65046;DHT22;54657;52.022;5.534;2022-09-27T14:30:46;13.80;78.50
65046;DHT22;54657;52.022;5.534;2022-09-27T14:33:27;13.80;78.50
65046;DHT22;54657;52.022;5.534;2022-09-27T14:35:53;13.90;78.40
65046;DHT22;54657;52.022;5.534;2022-09-27T14:38:37;13.90;78.70
65046;DHT22;54657;52.022;5.534;2022-09-27T14:41:05;13.90;78.60
65046;DHT22;54657;52.022;5.534;2022-09-27T14:43:33;13.80;78.60
65046;DHT22;54657;52.022;5.534;2022-09-27T14:46:04;13.90;78.60
65046;DHT22;54657;52.022;5.534;2022-09-27T14:48:32;13.90;78.50
65046;DHT22;54657;52.022;5.534;2022-09-27T14:53:31;13.80;78.40
65046;DHT22;54657;52.022;5.534;2022-09-27T14:55:56;13.90;78.40
65046;DHT22;54657;52.022;5.534;2022-09-27T14:58:23;13.90;78.50
65046;DHT22;54657;52.022;5.534;2022-09-27T15:00:50;13.80;78.60
65046;DHT22;54657;52.022;5.534;2022-09-27T15:03:27;13.80;78.70
65046;DHT22;54657;52.022;5.534;2022-09-27T15:05:54;13.90;78.50
65046;DHT22;54657;52.022;5.534;2022-09-27T15:08:22;13.90;78.60
65046;DHT22;54657;52.022;5.534;2022-09-27T15:10:49;13.90;78.50
65046;DHT22;54657;52.022;5.534;2022-09-27T15:13:17;13.90;78.20
65046;DHT22;54657;52.022;5.534;2022-09-27T15:15:44;13.80;78.20
65046;DHT22;54657;52.022;5.534;2022-09-27T15:18:43;13.80;78.50
65046;DHT22;54657;52.022;5.534;2022-09-27T15:21:15;13.70;77.40
65046;DHT22;54657;52.022;5.534;2022-09-27T15:23:51;13.70;78.60
65046;DHT22;54657;52.022;5.534;2022-09-27T15:26:41;13.60;79.10
65046;DHT22;54657;52.022;5.534;2022-09-27T15:29:22;13.60;78.30
65046;DHT22;54657;52.022;5.534;2022-09-27T15:32:19;13.70;78.80
65046;DHT22;54657;52.022;5.534;2022-09-27T15:34:45;13.60;78.10
65046;DHT22;54657;52.022;5.534;2022-09-27T15:37:32;13.50;79.10
65046;DHT22;54657;52.022;5.534;2022-09-27T15:42:55;13.50;78.50
65046;DHT22;54657;52.022;5.534;2022-09-27T15:45:29;13.50;78.90
65046;DHT22;54657;52.022;5.534;2022-09-27T15:47:55;13.50;79.10
65046;DHT22;54657;52.022;5.534;2022-09-27T15:52:52;13.50;79.00
65046;DHT22;54657;52.022;5.534;2022-09-27T15:55:22;13.50;79.10
65046;DHT22;54657;52.022;5.534;2022-09-27T15:57:53;13.50;79.10
65046;DHT22;54657;52.022;5.534;2022-09-27T16:00:19;13.40;79.10
65046;DHT22;54657;52.022;5.534;2022-09-27T16:02:46;13.40;79.30
65046;DHT22;54657;52.022;5.534;2022-09-27T16:05:12;13.30;79.10
65046;DHT22;54657;52.022;5.534;2022-09-27T16:07:38;13.30;79.20
65046;DHT22;54657;52.022;5.534;2022-09-27T16:10:25;13.40;79.30
65046;DHT22;54657;52.022;5.534;2022-09-27T16:12:51;13.40;79.00
65046;DHT22;54657;52.022;5.534;2022-09-27T16:15:16;13.30;79.30
65046;DHT22;54657;52.022;5.534;2022-09-27T16:17:42;13.30;79.40
65046;DHT22;54657;52.022;5.534;2022-09-27T16:20:22;13.30;79.30
65046;DHT22;54657;52.022;5.534;2022-09-27T16:22:49;13.30;79.30
65046;DHT22;54657;52.022;5.534;2022-09-27T16:25:15;13.20;79.50
65046;DHT22;54657;52.022;5.534;2022-09-27T16:27:41;13.30;79.50
65046;DHT22;54657;52.022;5.534;2022-09-27T16:30:07;13.30;79.30
65046;DHT22;54657;52.022;5.534;2022-09-27T16:32:33;13.30;79.30
65046;DHT22;54657;52.022;5.534;2022-09-27T16:35:00;13.30;79.40
65046;DHT22;54657;52.022;5.534;2022-09-27T16:37:26;13.10;79.30
65046;DHT22;54657;52.022;5.534;2022-09-27T16:39:52;13.10;79.60
65046;DHT22;54657;52.022;5.534;2022-09-27T16:42:17;13.00;79.50
65046;DHT22;54657;52.022;5.534;2022-09-27T16:44:43;12.90;79.40
65046;DHT22;54657;52.022;5.534;2022-09-27T16:47:08;12.90;79.30
65046;DHT22;54657;52.022;5.534;2022-09-27T16:49:34;12.90;78.90
65046;DHT22;54657;52.022;5.534;2022-09-27T16:52:19;12.80;78.90
65046;DHT22;54657;52.022;5.534;2022-09-27T16:54:44;12.80;79.10
65046;DHT22;54657;52.022;5.534;2022-09-27T16:57:10;12.70;78.80
65046;DHT22;54657;52.022;5.534;2022-09-27T16:59:35;12.70;78.80
65046;DHT22;54657;52.022;5.534;2022-09-27T17:02:01;12.60;78.70
65046;DHT22;54657;52.022;5.534;2022-09-27T17:04:29;12.60;79.20
65046;DHT22;54657;52.022;5.534;2022-09-27T17:06:55;12.60;78.90
65046;DHT22;54657;52.022;5.534;2022-09-27T17:09:21;12.70;78.80
65046;DHT22;54657;52.022;5.534;2022-09-27T17:11:47;12.60;78.60
65046;DHT22;54657;52.022;5.534;2022-09-27T17:14:13;12.60;78.70
65046;DHT22;54657;52.022;5.534;2022-09-27T17:16:42;12.60;78.60
65046;DHT22;54657;52.022;5.534;2022-09-27T17:19:08;12.50;78.70
65046;DHT22;54657;52.022;5.534;2022-09-27T17:21:35;12.50;78.70
65046;DHT22;54657;52.022;5.534;2022-09-27T17:24:00;12.50;78.60
65046;DHT22;54657;52.022;5.534;2022-09-27T17:26:26;12.50;78.70
65046;DHT22;54657;52.022;5.534;2022-09-27T17:28:55;12.50;78.60
65046;DHT22;54657;52.022;5.534;2022-09-27T17:31:22;12.60;78.60
65046;DHT22;54657;52.022;5.534;2022-09-27T17:33:48;12.50;78.60
65046;DHT22;54657;52.022;5.534;2022-09-27T17:36:21;12.50;78.90
65046;DHT22;54657;52.022;5.534;2022-09-27T17:38:47;12.50;78.80
65046;DHT22;54657;52.022;5.534;2022-09-27T17:41:15;12.50;78.80
65046;DHT22;54657;52.022;5.534;2022-09-27T17:43:42;12.40;78.90
65046;DHT22;54657;52.022;5.534;2022-09-27T17:46:15;12.40;79.30
65046;DHT22;54657;52.022;5.534;2022-09-27T17:48:40;12.30;78.50
65046;DHT22;54657;52.022;5.534;2022-09-27T17:51:25;12.30;79.30
65046;DHT22;54657;52.022;5.534;2022-09-27T17:53:51;12.30;79.90
65046;DHT22;54657;52.022;5.534;2022-09-27T17:56:17;12.30;79.40
65046;DHT22;54657;52.022;5.534;2022-09-27T17:58:50;12.30;79.50
65046;DHT22;54657;52.022;5.534;2022-09-27T18:01:18;12.30;79.30
65046;DHT22;54657;52.022;5.534;2022-09-27T18:03:44;12.40;80.00
65046;DHT22;54657;52.022;5.534;2022-09-27T18:06:12;12.40;79.10
65046;DHT22;54657;52.022;5.534;2022-09-27T18:08:39;12.40;79.00
65046;DHT22;54657;52.022;5.534;2022-09-27T18:11:07;12.30;78.90
65046;DHT22;54657;52.022;5.534;2022-09-27T18:13:33;12.30;79.10
65046;DHT22;54657;52.022;5.534;2022-09-27T18:16:06;12.30;79.20
65046;DHT22;54657;52.022;5.534;2022-09-27T18:18:33;12.30;79.40
65046;DHT22;54657;52.022;5.534;2022-09-27T18:21:01;12.20;79.50
65046;DHT22;54657;52.022;5.534;2022-09-27T18:23:31;12.30;79.50
65046;DHT22;54657;52.022;5.534;2022-09-27T18:25:57;12.30;79.30
65046;DHT22;54657;52.022;5.534;2022-09-27T18:28:27;12.30;79.10
65046;DHT22;54657;52.022;5.534;2022-09-27T18:30:53;12.30;79.10